Time;durP1;ratioP1;P1;durP2;ratioP2;P2;SDS_P1;SDS_P2;PMS_P1;PMS_P2;Temp;Humidity;BMP_temperature;BMP_pressure;BME280_temperature;BME280_humidity;BME280_pressure;Samples;Min_cycle;Max_cycle;Signal;HPM_P1;HPM_P2
2023/04/29 00:00:20;;;;;;;;;;;;;;;;;;5060791;28;20469;-61
2023/04/29 00:02:45;;;;;;;;;;;;;;;;;;5057336;28;20066;-61
2023/04/29 00:05:11;;;;;;;;;;;;;;;;;;5059253;28;19921;-61
2023/04/29 00:07:36;;;;;;;;;;;;;;;;;;5058252;28;20168;-62
2023/04/29 00:10:02;;;;;;;;;;;;;;;;;;5060291;28;20030;-61
2023/04/29 00:12:29;;;;;;;;;;;;;;;;;;5058545;28;19985;-62
2023/04/29 00:14:54;;;;;;;;;;;;;;;;;;5061466;28;19917;-60
2023/04/29 00:17:19;;;;;;;;;;;;;;;;;;5058680;28;19923;-60
2023/04/29 00:19:45;;;;;;;;;;;;;;;;;;5047831;28;20000;-61
2023/04/29 00:22:10;;;;;;;;;;;;;;;;;;5059474;28;20262;-60
2023/04/29 00:24:35;;;;;;;;;;;;;;;;;;5044212;28;19921;-60
2023/04/29 00:27:04;;;;;;;;;;;;;;;;;;5060635;28;19944;-60
2023/04/29 00:29:30;;;;;;;;;;;;;;;;;;5060809;28;19923;-61
2023/04/29 00:31:55;;;;;;;;;;;;;;;;;;5062120;28;19924;-61
2023/04/29 00:34:20;;;;;;;;;;;;;;;;;;5058404;28;19917;-60
2023/04/29 00:36:46;;;;;;;;;;;;;;;;;;5038944;28;19928;-61
2023/04/29 00:39:12;;;;;;;;;;;;;;;;;;5061637;28;20015;-61
2023/04/29 00:41:38;;;;;;;;;;;;;;;;;;5060034;28;19917;-61
2023/04/29 00:44:03;;;;;;;;;;;;;;;;;;5061169;28;19924;-60
2023/04/29 00:46:29;;;;;;;;;;;;;;;;;;5058149;28;19924;-60
2023/04/29 00:48:54;;;;;;;;;;;;;;;;;;5061256;28;20492;-62
2023/04/29 00:51:20;;;;;;;;;;;;;;;;;;5057099;28;19923;-60
2023/04/29 00:53:45;;;;;;;;;;;;;;;;;;5058529;28;20018;-61
2023/04/29 00:56:13;;;;;;;;;;;;;;;;;;5059880;28;20007;-61
2023/04/29 00:58:39;;;;;;;;;;;;;;;;;;5058094;28;20367;-61
2023/04/29 01:01:05;;;;;;;;;;;;;;;;;;5057023;28;20075;-60
2023/04/29 01:03:31;;;;;;;;;;;;;;;;;;5048655;28;19942;-60
2023/04/29 01:05:56;;;;;;;;;;;;;;;;;;5055113;28;20410;-60
2023/04/29 01:08:22;;;;;;;;;;;;;;;;;;5059381;28;20004;-60
2023/04/29 01:10:47;;;;;;;;;;;;;;;;;;5045498;28;20310;-61
2023/04/29 01:13:12;;;;;;;;;;;;;;;;;;5045647;28;19927;-60
2023/04/29 01:15:38;;;;;;;;;;;;;;;;;;5047271;28;19938;-61
2023/04/29 01:18:03;;;;;;;;;;;;;;;;;;5058588;28;19927;-60
2023/04/29 01:20:28;;;;;;;;;;;;;;;;;;5059589;28;20361;-61
2023/04/29 01:22:54;;;;;;;;;;;;;;;;;;5044187;28;20430;-59
2023/04/29 01:25:19;;;;;;;;;;;;;;;;;;5061606;28;20475;-61
2023/04/29 01:27:59;;;;;;;;;;;;;;;;;;5048861;28;20008;-60
2023/04/29 01:30:25;;;;;;;;;;;;;;;;;;5050254;28;19921;-60
2023/04/29 01:32:51;;;;;;;;;;;;;;;;;;5044259;28;20564;-62
2023/04/29 01:35:16;;;;;;;;;;;;;;;;;;5058684;28;19921;-62
2023/04/29 01:37:42;;;;;;;;;;;;;;;;;;5046290;28;20411;-60
2023/04/29 01:40:08;;;;;;;;;;;;;;;;;;5059015;28;20574;-61
2023/04/29 01:42:38;;;;;;;;;;;;;;;;;;5031453;28;19967;-60
2023/04/29 01:45:07;;;;;;;;;;;;;;;;;;5044217;28;19922;-61
2023/04/29 01:47:33;;;;;;;;;;;;;;;;;;5056272;28;19928;-60
2023/04/29 01:49:58;;;;;;;;;;;;;;;;;;5050660;28;20399;-61
2023/04/29 01:52:24;;;;;;;;;;;;;;;;;;5046939;28;19916;-62
2023/04/29 01:54:54;;;;;;;;;;;;;;;;;;5048747;28;19916;-60
2023/04/29 01:57:20;;;;;;;;;;;;;;;;;;5062373;28;19924;-60
2023/04/29 02:00:01;;;;;;;;;;;;;;;;;;5045959;28;19927;-61
2023/04/29 02:02:46;;;;;;;;;;;;;;;;;;5062300;28;19924;-61
2023/04/29 02:05:25;;;;;;;;;;;;;;;;;;5064075;28;19978;-60
2023/04/29 02:07:54;;;;;;;;;;;;;;;;;;5046407;28;19951;-60
2023/04/29 02:10:20;;;;;;;;;;;;;;;;;;5047128;28;19916;-60
2023/04/29 02:12:48;;;;;;;;;;;;;;;;;;5062059;28;19959;-62
2023/04/29 02:15:14;;;;;;;;;;;;;;;;;;5057971;28;19916;-60
2023/04/29 02:17:40;;;;;;;;;;;;;;;;;;5047952;28;20381;-61
2023/04/29 02:20:05;;;;;;;;;;;;;;;;;;5049355;28;19917;-60
2023/04/29 02:22:30;;;;;;;;;;;;;;;;;;5059870;28;20012;-61
2023/04/29 02:24:57;;;;;;;;;;;;;;;;;;5045994;28;19916;-60
2023/04/29 02:27:22;;;;;;;;;;;;;;;;;;5062001;28;20280;-61
2023/04/29 02:29:47;;;;;;;;;;;;;;;;;;5048551;28;19917;-60
2023/04/29 02:32:14;;;;;;;;;;;;;;;;;;5060464;28;19956;-60
2023/04/29 02:34:40;;;;;;;;;;;;;;;;;;5063444;28;20379;-60
2023/04/29 02:37:05;;;;;;;;;;;;;;;;;;5047539;28;19958;-60
2023/04/29 02:39:30;;;;;;;;;;;;;;;;;;5043436;28;19920;-60
2023/04/29 02:41:56;;;;;;;;;;;;;;;;;;5049198;28;19989;-60
2023/04/29 02:44:21;;;;;;;;;;;;;;;;;;5060100;28;20349;-60
2023/04/29 02:46:46;;;;;;;;;;;;;;;;;;5047838;28;19925;-60
2023/04/29 02:49:12;;;;;;;;;;;;;;;;;;5032295;28;20513;-61
2023/04/29 02:51:38;;;;;;;;;;;;;;;;;;5058708;28;20360;-60
2023/04/29 02:54:04;;;;;;;;;;;;;;;;;;5045946;28;20347;-61
2023/04/29 02:56:29;;;;;;;;;;;;;;;;;;5049746;28;20658;-60
2023/04/29 02:58:55;;;;;;;;;;;;;;;;;;5061331;28;19912;-61
2023/04/29 03:01:21;;;;;;;;;;;;;;;;;;5050625;28;20336;-61
2023/04/29 03:03:47;;;;;;;;;;;;;;;;;;5045771;28;19933;-61
2023/04/29 03:06:14;;;;;;;;;;;;;;;;;;5026694;28;19959;-62
2023/04/29 03:08:40;;;;;;;;;;;;;;;;;;5060633;28;20015;-61
2023/04/29 03:11:06;;;;;;;;;;;;;;;;;;5049614;28;20358;-61
2023/04/29 03:13:31;;;;;;;;;;;;;;;;;;5046351;28;19917;-61
2023/04/29 03:15:58;;;;;;;;;;;;;;;;;;5044721;28;19923;-61
2023/04/29 03:18:23;;;;;;;;;;;;;;;;;;5043511;28;19924;-61
2023/04/29 03:20:49;;;;;;;;;;;;;;;;;;5033308;28;20429;-61
2023/04/29 03:23:14;;;;;;;;;;;;;;;;;;5061528;28;19923;-61
2023/04/29 03:25:39;;;;;;;;;;;;;;;;;;5047600;28;20027;-61
2023/04/29 03:28:05;;;;;;;;;;;;;;;;;;5060317;28;20410;-61
2023/04/29 03:30:31;;;;;;;;;;;;;;;;;;5061295;28;19917;-60
2023/04/29 03:32:56;;;;;;;;;;;;;;;;;;5045015;28;19916;-62
2023/04/29 03:35:22;;;;;;;;;;;;;;;;;;5041761;28;20313;-60
2023/04/29 03:38:08;;;;;;;;;;;;;;;;;;5035161;28;20350;-60
2023/04/29 03:40:34;;;;;;;;;;;;;;;;;;5051591;28;19924;-60
2023/04/29 03:43:00;;;;;;;;;;;;;;;;;;5046759;28;19916;-60
2023/04/29 03:45:25;;;;;;;;;;;;;;;;;;5043851;28;19924;-60
2023/04/29 03:47:52;;;;;;;;;;;;;;;;;;5047112;28;19997;-60
2023/04/29 03:50:17;;;;;;;;;;;;;;;;;;5048811;28;19971;-61
2023/04/29 03:52:43;;;;;;;;;;;;;;;;;;5045293;28;20011;-62
2023/04/29 03:55:12;;;;;;;;;;;;;;;;;;5044609;28;20250;-60
2023/04/29 03:57:37;;;;;;;;;;;;;;;;;;5046802;28;19916;-62
2023/04/29 04:00:03;;;;;;;;;;;;;;;;;;5046779;28;20292;-62
2023/04/29 04:02:38;;;;;;;;;;;;;;;;;;5059029;28;20513;-62
2023/04/29 04:05:04;;;;;;;;;;;;;;;;;;5046758;28;20457;-62
2023/04/29 04:07:29;;;;;;;;;;;;;;;;;;5060913;28;19924;-62
2023/04/29 04:10:20;;;;;;;;;;;;;;;;;;5056870;28;19916;-62
2023/04/29 04:12:46;;;;;;;;;;;;;;;;;;5046105;28;19916;-60
2023/04/29 04:15:11;;;;;;;;;;;;;;;;;;5060369;28;19916;-60
2023/04/29 04:17:37;;;;;;;;;;;;;;;;;;5046547;28;19972;-60
2023/04/29 04:20:03;;;;;;;;;;;;;;;;;;5046702;28;19916;-60
2023/04/29 04:22:28;;;;;;;;;;;;;;;;;;5033734;28;20602;-60
2023/04/29 04:25:09;;;;;;;;;;;;;;;;;;5056637;28;20277;-60
2023/04/29 04:27:34;;;;;;;;;;;;;;;;;;5057701;28;19924;-61
2023/04/29 04:30:03;;;;;;;;;;;;;;;;;;5046224;28;19917;-60
2023/04/29 04:32:30;;;;;;;;;;;;;;;;;;5042550;28;20183;-61
2023/04/29 04:34:56;;;;;;;;;;;;;;;;;;5019858;28;19932;-62
2023/04/29 04:37:21;;;;;;;;;;;;;;;;;;5059281;28;19916;-61
2023/04/29 04:39:51;;;;;;;;;;;;;;;;;;5044449;28;19966;-61
2023/04/29 04:42:16;;;;;;;;;;;;;;;;;;5049549;28;19916;-66
2023/04/29 04:44:42;;;;;;;;;;;;;;;;;;5045339;28;20361;-61
2023/04/29 04:47:12;;;;;;;;;;;;;;;;;;5057544;28;19928;-61
2023/04/29 04:49:56;;;;;;;;;;;;;;;;;;5040093;28;19982;-61
2023/04/29 04:52:22;;;;;;;;;;;;;;;;;;5056887;28;19919;-61
2023/04/29 04:54:57;;;;;;;;;;;;;;;;;;5046264;28;19924;-61
2023/04/29 04:57:25;;;;;;;;;;;;;;;;;;5042665;28;20367;-61
2023/04/29 04:59:53;;;;;;;;;;;;;;;;;;5025790;28;19927;-61
2023/04/29 05:02:18;;;;;;;;;;;;;;;;;;5044696;28;19916;-60
2023/04/29 05:04:43;;;;;;;;;;;;;;;;;;5051347;28;19956;-61
2023/04/29 05:07:10;;;;;;;;;;;;;;;;;;5037158;28;20307;-61
2023/04/29 05:09:54;;;;;;;;;;;;;;;;;;5028184;28;19996;-61
2023/04/29 05:12:20;;;;;;;;;;;;;;;;;;5037826;28;19916;-61
2023/04/29 05:14:45;;;;;;;;;;;;;;;;;;5025241;28;20442;-64
2023/04/29 05:17:11;;;;;;;;;;;;;;;;;;5038943;28;19917;-62
2023/04/29 05:19:37;;;;;;;;;;;;;;;;;;5035362;28;20213;-61
2023/04/29 05:22:02;;;;;;;;;;;;;;;;;;5040077;28;20581;-61
2023/04/29 05:24:29;;;;;;;;;;;;;;;;;;5036756;28;19924;-60
2023/04/29 05:26:54;;;;;;;;;;;;;;;;;;5036446;28;19932;-60
2023/04/29 05:29:20;;;;;;;;;;;;;;;;;;5035223;28;20286;-60
2023/04/29 05:31:53;;;;;;;;;;;;;;;;;;5040994;28;19921;-60
2023/04/29 05:34:19;;;;;;;;;;;;;;;;;;5041239;28;19923;-60
2023/04/29 05:36:44;;;;;;;;;;;;;;;;;;5037980;28;19974;-60
2023/04/29 05:39:10;;;;;;;;;;;;;;;;;;5024724;28;19917;-59
2023/04/29 05:41:35;;;;;;;;;;;;;;;;;;5037646;28;19917;-60
2023/04/29 05:44:11;;;;;;;;;;;;;;;;;;5040286;28;20383;-60
2023/04/29 05:46:37;;;;;;;;;;;;;;;;;;5038856;28;19970;-60
2023/04/29 05:49:02;;;;;;;;;;;;;;;;;;5040913;28;19913;-60
2023/04/29 05:51:28;;;;;;;;;;;;;;;;;;5034813;28;20291;-60
2023/04/29 05:53:53;;;;;;;;;;;;;;;;;;5040772;28;19921;-60
2023/04/29 05:56:18;;;;;;;;;;;;;;;;;;5037603;28;19916;-60
2023/04/29 05:58:44;;;;;;;;;;;;;;;;;;5037804;28;20244;-59
2023/04/29 06:01:09;;;;;;;;;;;;;;;;;;5037015;28;19916;-59
2023/04/29 06:03:34;;;;;;;;;;;;;;;;;;5045734;28;20478;-58
2023/04/29 06:06:20;;;;;;;;;;;;;;;;;;5028368;28;19926;-59
2023/04/29 06:09:05;;;;;;;;;;;;;;;;;;5025502;28;19916;-60
2023/04/29 06:11:32;;;;;;;;;;;;;;;;;;5042828;28;20019;-60
2023/04/29 06:13:59;;;;;;;;;;;;;;;;;;5039812;28;19924;-60
2023/04/29 06:16:24;;;;;;;;;;;;;;;;;;5054466;28;19981;-60
2023/04/29 06:18:51;;;;;;;;;;;;;;;;;;5056719;28;19917;-60
2023/04/29 06:21:16;;;;;;;;;;;;;;;;;;5036463;28;20046;-61
2023/04/29 06:23:41;;;;;;;;;;;;;;;;;;5043793;28;19918;-61
2023/04/29 06:26:14;;;;;;;;;;;;;;;;;;5041791;28;19927;-60
2023/04/29 06:28:39;;;;;;;;;;;;;;;;;;5043058;28;20845;-60
2023/04/29 06:31:04;;;;;;;;;;;;;;;;;;5043937;28;19923;-61
2023/04/29 06:33:32;;;;;;;;;;;;;;;;;;5057846;28;20649;-61
2023/04/29 06:35:58;;;;;;;;;;;;;;;;;;5060193;28;20108;-60
2023/04/29 06:38:42;;;;;;;;;;;;;;;;;;5062633;28;20450;-61
2023/04/29 06:41:31;;;;;;;;;;;;;;;;;;5051993;28;20263;-60
2023/04/29 06:44:29;;;;;;;;;;;;;;;;;;5020949;28;19915;-61
2023/04/29 06:47:02;;;;;;;;;;;;;;;;;;5047039;28;19928;-60
2023/04/29 06:49:56;;;;;;;;;;;;;;;;;;5038521;28;19920;-60
2023/04/29 06:52:22;;;;;;;;;;;;;;;;;;5060633;28;20433;-60
2023/04/29 06:54:47;;;;;;;;;;;;;;;;;;5048844;28;19917;-60
2023/04/29 06:57:12;;;;;;;;;;;;;;;;;;5031527;28;19923;-60
2023/04/29 06:59:37;;;;;;;;;;;;;;;;;;5060677;28;20007;-59
2023/04/29 07:02:03;;;;;;;;;;;;;;;;;;5060808;28;19928;-61
2023/04/29 07:04:29;;;;;;;;;;;;;;;;;;5041872;28;20323;-60
2023/04/29 07:06:54;;;;;;;;;;;;;;;;;;5040267;28;20012;-60
2023/04/29 07:09:20;;;;;;;;;;;;;;;;;;5045054;28;19916;-59
2023/04/29 07:11:45;;;;;;;;;;;;;;;;;;5038409;28;19952;-62
2023/04/29 07:14:10;;;;;;;;;;;;;;;;;;5040473;28;19921;-60
2023/04/29 07:16:36;;;;;;;;;;;;;;;;;;5037797;28;20280;-61
2023/04/29 07:19:01;;;;;;;;;;;;;;;;;;5040702;28;19924;-69
2023/04/29 07:21:26;;;;;;;;;;;;;;;;;;5041348;28;20303;-66
2023/04/29 07:23:53;;;;;;;;;;;;;;;;;;5043147;28;19923;-65
2023/04/29 07:26:20;;;;;;;;;;;;;;;;;;5041619;28;20310;-65
2023/04/29 07:28:45;;;;;;;;;;;;;;;;;;5037668;28;19916;-63
2023/04/29 07:31:14;;;;;;;;;;;;;;;;;;5039176;28;19917;-68
2023/04/29 07:33:39;;;;;;;;;;;;;;;;;;5037955;28;19924;-71
2023/04/29 07:36:06;;;;;;;;;;;;;;;;;;5045127;28;19921;-70
2023/04/29 07:38:31;;;;;;;;;;;;;;;;;;5045082;28;20229;-74
2023/04/29 07:40:56;;;;;;;;;;;;;;;;;;5040816;28;19917;-69
2023/04/29 07:43:22;;;;;;;;;;;;;;;;;;5042779;28;19920;-69
2023/04/29 07:45:47;;;;;;;;;;;;;;;;;;5025020;28;20553;-69
2023/04/29 07:48:12;;;;;;;;;;;;;;;;;;5033636;28;20285;-69
2023/04/29 07:50:38;;;;;;;;;;;;;;;;;;5041671;28;19917;-67
2023/04/29 07:53:03;;;;;;;;;;;;;;;;;;5040574;28;19974;-65
2023/04/29 07:55:29;;;;;;;;;;;;;;;;;;5039228;28;19939;-65
2023/04/29 07:57:56;;;;;;;;;;;;;;;;;;5038480;28;19923;-66
2023/04/29 08:00:22;;;;;;;;;;;;;;;;;;5029062;28;19917;-65
2023/04/29 08:02:47;;;;;;;;;;;;;;;;;;5034194;28;19928;-67
2023/04/29 08:05:13;;;;;;;;;;;;;;;;;;5057373;28;19924;-65
2023/04/29 08:07:39;;;;;;;;;;;;;;;;;;5059457;28;20273;-67
2023/04/29 08:10:05;;;;;;;;;;;;;;;;;;5047817;28;20294;-67
2023/04/29 08:12:30;;;;;;;;;;;;;;;;;;5059176;28;19917;-66
2023/04/29 08:14:56;;;;;;;;;;;;;;;;;;5060162;28;19923;-66
2023/04/29 08:17:21;;;;;;;;;;;;;;;;;;5032699;28;19959;-63
2023/04/29 08:19:47;;;;;;;;;;;;;;;;;;5059699;28;19926;-63
2023/04/29 08:22:13;;;;;;;;;;;;;;;;;;5058050;28;19916;-63
2023/04/29 08:24:39;;;;;;;;;;;;;;;;;;5059777;28;20267;-64
2023/04/29 08:27:05;;;;;;;;;;;;;;;;;;5057003;28;19946;-65
2023/04/29 08:29:31;;;;;;;;;;;;;;;;;;5059768;28;19912;-65
2023/04/29 08:31:57;;;;;;;;;;;;;;;;;;5059380;28;19916;-65
2023/04/29 08:34:22;;;;;;;;;;;;;;;;;;5056656;28;19956;-68
2023/04/29 08:36:48;;;;;;;;;;;;;;;;;;5059275;28;20429;-67
2023/04/29 08:39:13;;;;;;;;;;;;;;;;;;5059177;28;19921;-67
2023/04/29 08:41:39;;;;;;;;;;;;;;;;;;5058705;28;20423;-69
2023/04/29 08:44:04;;;;;;;;;;;;;;;;;;5058603;28;19917;-68
2023/04/29 08:46:29;;;;;;;;;;;;;;;;;;5058367;28;20404;-69
2023/04/29 08:48:55;;;;;;;;;;;;;;;;;;5060551;28;19923;-68
2023/04/29 08:51:20;;;;;;;;;;;;;;;;;;5059654;28;19916;-61
2023/04/29 08:53:46;;;;;;;;;;;;;;;;;;5057583;28;19923;-62
2023/04/29 08:56:11;;;;;;;;;;;;;;;;;;5059629;28;20341;-63
2023/04/29 08:58:36;;;;;;;;;;;;;;;;;;5056077;28;20244;-64
2023/04/29 09:01:02;;;;;;;;;;;;;;;;;;5059597;28;20440;-64
2023/04/29 09:03:27;;;;;;;;;;;;;;;;;;5055894;28;20929;-65
2023/04/29 09:05:52;;;;;;;;;;;;;;;;;;5060155;28;20029;-61
2023/04/29 09:08:18;;;;;;;;;;;;;;;;;;5056889;28;19932;-62
2023/04/29 09:10:44;;;;;;;;;;;;;;;;;;5057533;28;19916;-62
2023/04/29 09:13:10;;;;;;;;;;;;;;;;;;5056702;28;19920;-61
2023/04/29 09:15:35;;;;;;;;;;;;;;;;;;5059167;28;20449;-63
2023/04/29 09:18:01;;;;;;;;;;;;;;;;;;5058338;28;19966;-62
2023/04/29 09:20:26;;;;;;;;;;;;;;;;;;5057769;28;19917;-63
2023/04/29 09:22:54;;;;;;;;;;;;;;;;;;5059763;28;20425;-62
2023/04/29 09:25:20;;;;;;;;;;;;;;;;;;5057900;28;19928;-62
2023/04/29 09:27:45;;;;;;;;;;;;;;;;;;5056973;28;19924;-61
2023/04/29 09:30:15;;;;;;;;;;;;;;;;;;5017431;28;20327;-60
2023/04/29 09:32:40;;;;;;;;;;;;;;;;;;5040709;28;19932;-61
2023/04/29 09:35:06;;;;;;;;;;;;;;;;;;5054940;28;19921;-61
2023/04/29 09:37:32;;;;;;;;;;;;;;;;;;5055694;28;19948;-58
2023/04/29 09:39:57;;;;;;;;;;;;;;;;;;5058666;28;19991;-60
2023/04/29 09:42:23;;;;;;;;;;;;;;;;;;5060654;28;19920;-60
2023/04/29 09:44:48;;;;;;;;;;;;;;;;;;5062770;28;20442;-60
2023/04/29 09:47:14;;;;;;;;;;;;;;;;;;5055505;28;20025;-59
2023/04/29 09:49:44;;;;;;;;;;;;;;;;;;5057599;28;20684;-60
2023/04/29 09:52:09;;;;;;;;;;;;;;;;;;5056353;28;20011;-61
2023/04/29 09:54:38;;;;;;;;;;;;;;;;;;5061730;28;20035;-63
2023/04/29 09:57:06;;;;;;;;;;;;;;;;;;5054668;28;20503;-62
2023/04/29 09:59:34;;;;;;;;;;;;;;;;;;5058957;28;19978;-65
2023/04/29 10:02:00;;;;;;;;;;;;;;;;;;5058144;28;20007;-63
2023/04/29 10:04:25;;;;;;;;;;;;;;;;;;5040236;28;19925;-64
2023/04/29 10:06:51;;;;;;;;;;;;;;;;;;5040276;28;20184;-62
2023/04/29 10:09:16;;;;;;;;;;;;;;;;;;5043056;28;20188;-63
2023/04/29 10:11:41;;;;;;;;;;;;;;;;;;5041700;28;20165;-68
2023/04/29 10:14:07;;;;;;;;;;;;;;;;;;5041598;28;19924;-63
2023/04/29 10:16:32;;;;;;;;;;;;;;;;;;5042315;28;20466;-63
2023/04/29 10:18:58;;;;;;;;;;;;;;;;;;5040627;28;19931;-60
2023/04/29 10:21:23;;;;;;;;;;;;;;;;;;5043598;28;19921;-60
2023/04/29 10:23:49;;;;;;;;;;;;;;;;;;5041406;28;19978;-60
2023/04/29 10:26:15;;;;;;;;;;;;;;;;;;5041974;28;20245;-60
2023/04/29 10:28:40;;;;;;;;;;;;;;;;;;5040644;28;19927;-60
2023/04/29 10:31:06;;;;;;;;;;;;;;;;;;5042167;28;19923;-60
2023/04/29 10:33:32;;;;;;;;;;;;;;;;;;5042571;28;19917;-59
2023/04/29 10:35:59;;;;;;;;;;;;;;;;;;5043765;28;19921;-59
2023/04/29 10:38:25;;;;;;;;;;;;;;;;;;5042294;28;19928;-60
2023/04/29 10:40:50;;;;;;;;;;;;;;;;;;5025826;28;19916;-60
2023/04/29 10:43:15;;;;;;;;;;;;;;;;;;5040404;28;20466;-60
2023/04/29 10:45:41;;;;;;;;;;;;;;;;;;5042588;28;20490;-61
2023/04/29 10:48:09;;;;;;;;;;;;;;;;;;5039172;28;19924;-60
2023/04/29 10:50:34;;;;;;;;;;;;;;;;;;5040108;28;19916;-61
2023/04/29 10:53:00;;;;;;;;;;;;;;;;;;5043957;28;19917;-60
2023/04/29 10:55:25;;;;;;;;;;;;;;;;;;5040761;28;19960;-61
2023/04/29 10:57:50;;;;;;;;;;;;;;;;;;5040175;28;20385;-60
2023/04/29 11:00:16;;;;;;;;;;;;;;;;;;5041818;28;20423;-65
2023/04/29 11:02:41;;;;;;;;;;;;;;;;;;5044029;28;19916;-63
2023/04/29 11:05:08;;;;;;;;;;;;;;;;;;5062812;28;20320;-61
2023/04/29 11:07:33;;;;;;;;;;;;;;;;;;5061918;28;19935;-61
2023/04/29 11:09:58;;;;;;;;;;;;;;;;;;5063996;28;19992;-60
2023/04/29 11:12:24;;;;;;;;;;;;;;;;;;5058402;28;20359;-60
2023/04/29 11:14:49;;;;;;;;;;;;;;;;;;5060054;28;20400;-62
2023/04/29 11:17:15;;;;;;;;;;;;;;;;;;5062131;28;19912;-61
2023/04/29 11:19:40;;;;;;;;;;;;;;;;;;5058355;28;19916;-61
2023/04/29 11:22:06;;;;;;;;;;;;;;;;;;5058738;28;19947;-59
2023/04/29 11:24:31;;;;;;;;;;;;;;;;;;5057917;28;20098;-62
2023/04/29 11:26:56;;;;;;;;;;;;;;;;;;5057253;28;20026;-60
2023/04/29 11:29:22;;;;;;;;;;;;;;;;;;5057147;28;20380;-60
2023/04/29 11:31:47;;;;;;;;;;;;;;;;;;5058523;28;19916;-60
2023/04/29 11:34:12;;;;;;;;;;;;;;;;;;5058124;28;20856;-60
2023/04/29 11:36:38;;;;;;;;;;;;;;;;;;5045354;28;19955;-60
2023/04/29 11:39:03;;;;;;;;;;;;;;;;;;5055404;28;19923;-60
2023/04/29 11:41:30;;;;;;;;;;;;;;;;;;5061347;28;19920;-61
2023/04/29 11:43:56;;;;;;;;;;;;;;;;;;5059789;28;19959;-61
2023/04/29 11:46:21;;;;;;;;;;;;;;;;;;5059966;28;20474;-61
2023/04/29 11:48:47;;;;;;;;;;;;;;;;;;5062248;28;20069;-61
2023/04/29 11:51:13;;;;;;;;;;;;;;;;;;5060395;28;20483;-61
2023/04/29 11:53:38;;;;;;;;;;;;;;;;;;5060044;28;20219;-61
2023/04/29 11:56:03;;;;;;;;;;;;;;;;;;5040761;28;19927;-60
2023/04/29 11:58:29;;;;;;;;;;;;;;;;;;5058895;28;19928;-60
2023/04/29 12:00:55;;;;;;;;;;;;;;;;;;5056740;28;20236;-59
2023/04/29 12:03:20;;;;;;;;;;;;;;;;;;5057956;28;19983;-60
2023/04/29 12:05:46;;;;;;;;;;;;;;;;;;5056979;28;19967;-61
2023/04/29 12:08:11;;;;;;;;;;;;;;;;;;5061042;28;19986;-60
2023/04/29 12:10:37;;;;;;;;;;;;;;;;;;5057792;28;20339;-63
2023/04/29 12:13:02;;;;;;;;;;;;;;;;;;5057681;28;20291;-60
2023/04/29 12:15:28;;;;;;;;;;;;;;;;;;5046900;28;19916;-60
2023/04/29 12:17:53;;;;;;;;;;;;;;;;;;5059786;28;20204;-61
2023/04/29 12:20:19;;;;;;;;;;;;;;;;;;5060809;28;20260;-60
2023/04/29 12:22:44;;;;;;;;;;;;;;;;;;5060059;28;19920;-65
2023/04/29 12:25:09;;;;;;;;;;;;;;;;;;5059531;28;20268;-61
2023/04/29 12:27:35;;;;;;;;;;;;;;;;;;5060980;28;19920;-60
2023/04/29 12:30:00;;;;;;;;;;;;;;;;;;5044820;28;20427;-63
2023/04/29 12:32:26;;;;;;;;;;;;;;;;;;5057098;28;20323;-60
2023/04/29 12:34:52;;;;;;;;;;;;;;;;;;5061223;28;19920;-60
2023/04/29 12:37:17;;;;;;;;;;;;;;;;;;5061832;28;19934;-61
2023/04/29 12:39:42;;;;;;;;;;;;;;;;;;5040630;28;20366;-60
2023/04/29 12:42:08;;;;;;;;;;;;;;;;;;5060176;28;19916;-60
2023/04/29 12:44:33;;;;;;;;;;;;;;;;;;5061652;28;19919;-58
2023/04/29 12:46:58;;;;;;;;;;;;;;;;;;5059990;28;20324;-57
2023/04/29 12:49:24;;;;;;;;;;;;;;;;;;5059101;28;19921;-59
2023/04/29 12:51:49;;;;;;;;;;;;;;;;;;5058332;28;19916;-60
2023/04/29 12:54:15;;;;;;;;;;;;;;;;;;5058082;28;19916;-60
2023/04/29 12:56:40;;;;;;;;;;;;;;;;;;5032939;28;19920;-62
2023/04/29 12:59:09;;;;;;;;;;;;;;;;;;5033576;28;19916;-60
2023/04/29 13:01:34;;;;;;;;;;;;;;;;;;5056638;28;19917;-60
2023/04/29 13:04:00;;;;;;;;;;;;;;;;;;5058181;28;20643;-61
2023/04/29 13:06:25;;;;;;;;;;;;;;;;;;5058256;28;19928;-64
2023/04/29 13:08:53;;;;;;;;;;;;;;;;;;5055827;28;20373;-62
2023/04/29 13:11:19;;;;;;;;;;;;;;;;;;5055827;28;20043;-59
2023/04/29 13:13:44;;;;;;;;;;;;;;;;;;5057177;28;20327;-61
2023/04/29 13:16:10;;;;;;;;;;;;;;;;;;5057710;28;19916;-61
2023/04/29 13:18:35;;;;;;;;;;;;;;;;;;5055689;28;19939;-66
2023/04/29 13:21:01;;;;;;;;;;;;;;;;;;5060312;28;19917;-61
2023/04/29 13:23:26;;;;;;;;;;;;;;;;;;5060891;28;19923;-60
2023/04/29 13:25:51;;;;;;;;;;;;;;;;;;5059306;28;20024;-61
2023/04/29 13:28:17;;;;;;;;;;;;;;;;;;5057506;28;20000;-61
2023/04/29 13:30:42;;;;;;;;;;;;;;;;;;5055664;28;19943;-62
2023/04/29 13:33:08;;;;;;;;;;;;;;;;;;5058414;28;20224;-60
2023/04/29 13:35:34;;;;;;;;;;;;;;;;;;5057895;28;19924;-60
2023/04/29 13:38:00;;;;;;;;;;;;;;;;;;5060013;28;19936;-60
2023/04/29 13:40:26;;;;;;;;;;;;;;;;;;5057918;28;20407;-63
2023/04/29 13:42:51;;;;;;;;;;;;;;;;;;5056954;28;20053;-61
2023/04/29 13:45:16;;;;;;;;;;;;;;;;;;5040393;28;20350;-62
2023/04/29 13:47:43;;;;;;;;;;;;;;;;;;5059060;28;20045;-62
2023/04/29 13:50:08;;;;;;;;;;;;;;;;;;5057822;28;20007;-63
2023/04/29 13:52:34;;;;;;;;;;;;;;;;;;5057558;28;20420;-62
2023/04/29 13:54:59;;;;;;;;;;;;;;;;;;5057295;28;20446;-62
2023/04/29 13:57:26;;;;;;;;;;;;;;;;;;5058057;28;19920;-62
2023/04/29 13:59:53;;;;;;;;;;;;;;;;;;5057885;28;19982;-61
2023/04/29 14:02:19;;;;;;;;;;;;;;;;;;5060195;28;19923;-62
2023/04/29 14:04:44;;;;;;;;;;;;;;;;;;5038540;28;19932;-61
2023/04/29 14:07:10;;;;;;;;;;;;;;;;;;5039028;28;20464;-61
2023/04/29 14:09:35;;;;;;;;;;;;;;;;;;5038181;28;19920;-61
2023/04/29 14:12:01;;;;;;;;;;;;;;;;;;5037636;28;20119;-61
2023/04/29 14:14:26;;;;;;;;;;;;;;;;;;5036298;28;19916;-59
2023/04/29 14:16:51;;;;;;;;;;;;;;;;;;5037921;28;19917;-59
2023/04/29 14:19:17;;;;;;;;;;;;;;;;;;5038531;28;20271;-58
2023/04/29 14:21:42;;;;;;;;;;;;;;;;;;5037929;28;20379;-60
2023/04/29 14:24:07;;;;;;;;;;;;;;;;;;5039338;28;20107;-61
2023/04/29 14:26:33;;;;;;;;;;;;;;;;;;5039412;28;20014;-59
2023/04/29 14:29:00;;;;;;;;;;;;;;;;;;5040323;28;19928;-59
2023/04/29 14:31:28;;;;;;;;;;;;;;;;;;5038671;28;20432;-59
2023/04/29 14:33:53;;;;;;;;;;;;;;;;;;5034419;28;19974;-59
2023/04/29 14:36:19;;;;;;;;;;;;;;;;;;5037347;28;20370;-59
2023/04/29 14:38:44;;;;;;;;;;;;;;;;;;5036998;28;19927;-59
2023/04/29 14:41:09;;;;;;;;;;;;;;;;;;5040727;28;20015;-59
2023/04/29 14:43:35;;;;;;;;;;;;;;;;;;5035471;28;19917;-59
2023/04/29 14:46:00;;;;;;;;;;;;;;;;;;5036000;28;19917;-59
2023/04/29 14:48:26;;;;;;;;;;;;;;;;;;5037394;28;19921;-60
2023/04/29 14:50:51;;;;;;;;;;;;;;;;;;5036021;28;19920;-60
2023/04/29 14:53:16;;;;;;;;;;;;;;;;;;5041538;28;19917;-59
2023/04/29 14:55:42;;;;;;;;;;;;;;;;;;5042478;28;20366;-60
2023/04/29 14:58:09;;;;;;;;;;;;;;;;;;5037496;28;19920;-59
2023/04/29 15:00:34;;;;;;;;;;;;;;;;;;5022431;28;20382;-58
2023/04/29 15:02:59;;;;;;;;;;;;;;;;;;5046212;28;19931;-59
2023/04/29 15:05:25;;;;;;;;;;;;;;;;;;5061266;28;20366;-60
2023/04/29 15:07:50;;;;;;;;;;;;;;;;;;5062038;28;19924;-62
2023/04/29 15:10:15;;;;;;;;;;;;;;;;;;5059084;28;20039;-61
2023/04/29 15:12:41;;;;;;;;;;;;;;;;;;5059975;28;20393;-61
2023/04/29 15:15:06;;;;;;;;;;;;;;;;;;5059929;28;19916;-61
2023/04/29 15:17:32;;;;;;;;;;;;;;;;;;5061110;28;19916;-61
2023/04/29 15:19:57;;;;;;;;;;;;;;;;;;5058361;28;19920;-61
2023/04/29 15:22:22;;;;;;;;;;;;;;;;;;5060182;28;19924;-61
2023/04/29 15:24:48;;;;;;;;;;;;;;;;;;5060530;28;20044;-60
2023/04/29 15:27:15;;;;;;;;;;;;;;;;;;5057901;28;20461;-61
2023/04/29 15:29:40;;;;;;;;;;;;;;;;;;5057412;28;20106;-62
2023/04/29 15:32:06;;;;;;;;;;;;;;;;;;5062041;28;19916;-61
2023/04/29 15:34:31;;;;;;;;;;;;;;;;;;5062577;28;19919;-63
2023/04/29 15:36:58;;;;;;;;;;;;;;;;;;5061966;28;20356;-65
2023/04/29 15:39:24;;;;;;;;;;;;;;;;;;5058807;28;20007;-65
2023/04/29 15:41:49;;;;;;;;;;;;;;;;;;5062245;28;19943;-65
2023/04/29 15:44:14;;;;;;;;;;;;;;;;;;5059952;28;19912;-67
2023/04/29 15:46:40;;;;;;;;;;;;;;;;;;5061571;28;19923;-68
2023/04/29 15:49:05;;;;;;;;;;;;;;;;;;5060090;28;19965;-65
2023/04/29 15:51:31;;;;;;;;;;;;;;;;;;5058602;28;20465;-67
2023/04/29 15:53:56;;;;;;;;;;;;;;;;;;5061465;28;19916;-64
2023/04/29 15:56:21;;;;;;;;;;;;;;;;;;5062960;28;19919;-66
2023/04/29 15:58:47;;;;;;;;;;;;;;;;;;5061768;28;19924;-65
2023/04/29 16:01:12;;;;;;;;;;;;;;;;;;5061934;28;19917;-66
2023/04/29 16:03:38;;;;;;;;;;;;;;;;;;5061036;28;19931;-67
2023/04/29 16:06:03;;;;;;;;;;;;;;;;;;5060186;28;20020;-64
2023/04/29 16:08:28;;;;;;;;;;;;;;;;;;5060728;28;20098;-64
2023/04/29 16:10:54;;;;;;;;;;;;;;;;;;5061709;28;19925;-63
2023/04/29 16:13:19;;;;;;;;;;;;;;;;;;5062528;28;19912;-64
2023/04/29 16:15:45;;;;;;;;;;;;;;;;;;5062483;28;20017;-66
2023/04/29 16:18:10;;;;;;;;;;;;;;;;;;5061038;28;20484;-63
2023/04/29 16:20:36;;;;;;;;;;;;;;;;;;5060557;28;19943;-61
2023/04/29 16:23:01;;;;;;;;;;;;;;;;;;5061067;28;19985;-63
2023/04/29 16:25:26;;;;;;;;;;;;;;;;;;5058848;28;19923;-62
2023/04/29 16:27:52;;;;;;;;;;;;;;;;;;5060356;28;19982;-63
2023/04/29 16:30:17;;;;;;;;;;;;;;;;;;5060713;28;20031;-63
2023/04/29 16:32:43;;;;;;;;;;;;;;;;;;5062064;28;19921;-61
2023/04/29 16:35:08;;;;;;;;;;;;;;;;;;5060044;28;19925;-62
2023/04/29 16:37:34;;;;;;;;;;;;;;;;;;5058771;28;20068;-60
2023/04/29 16:40:00;;;;;;;;;;;;;;;;;;5056681;28;20865;-63